sensor_id;sensor_type;location;lat;lon;timestamp;pressure;altitude;pressure_sealevel;temperature
68952;BMP180;56000;51.146;17.112;2023-04-03T00:02:12;101037.80;;;1.60
68952;BMP180;56000;51.146;17.112;2023-04-03T00:04:45;101040.60;;;1.60
68952;BMP180;56000;51.146;17.112;2023-04-03T00:07:18;101041.20;;;1.60
68952;BMP180;56000;51.146;17.112;2023-04-03T00:09:51;101044.80;;;1.60
68952;BMP180;56000;51.146;17.112;2023-04-03T00:12:24;101042.40;;;1.54
68952;BMP180;56000;51.146;17.112;2023-04-03T00:14:57;101047.00;;;1.50
68952;BMP180;56000;51.146;17.112;2023-04-03T00:17:30;101049.20;;;1.50
68952;BMP180;56000;51.146;17.112;2023-04-03T00:20:04;101051.20;;;1.50
68952;BMP180;56000;51.146;17.112;2023-04-03T00:22:38;101050.60;;;1.50
68952;BMP180;56000;51.146;17.112;2023-04-03T00:25:12;101054.40;;;1.46
68952;BMP180;56000;51.146;17.112;2023-04-03T00:27:45;101053.60;;;1.40
68952;BMP180;56000;51.146;17.112;2023-04-03T00:30:20;101052.60;;;1.40
68952;BMP180;56000;51.146;17.112;2023-04-03T00:32:55;101055.20;;;1.40
68952;BMP180;56000;51.146;17.112;2023-04-03T00:35:28;101051.40;;;1.40
68952;BMP180;56000;51.146;17.112;2023-04-03T00:38:01;101055.20;;;1.40
68952;BMP180;56000;51.146;17.112;2023-04-03T00:40:39;101052.80;;;1.40
68952;BMP180;56000;51.146;17.112;2023-04-03T00:43:17;101051.80;;;1.30
68952;BMP180;56000;51.146;17.112;2023-04-03T00:45:52;101059.60;;;1.30
68952;BMP180;56000;51.146;17.112;2023-04-03T00:48:29;101060.40;;;1.30
68952;BMP180;56000;51.146;17.112;2023-04-03T00:51:04;101061.60;;;1.28
68952;BMP180;56000;51.146;17.112;2023-04-03T00:53:41;101054.40;;;1.20
68952;BMP180;56000;51.146;17.112;2023-04-03T00:56:19;101057.20;;;1.20
68952;BMP180;56000;51.146;17.112;2023-04-03T00:58:58;101064.20;;;1.16
68952;BMP180;56000;51.146;17.112;2023-04-03T01:01:32;101064.00;;;1.10
68952;BMP180;56000;51.146;17.112;2023-04-03T01:06:53;101075.40;;;1.08
68952;BMP180;56000;51.146;17.112;2023-04-03T01:09:29;101074.20;;;1.00
68952;BMP180;56000;51.146;17.112;2023-04-03T01:15:03;101079.40;;;0.98
68952;BMP180;56000;51.146;17.112;2023-04-03T01:17:40;101078.40;;;0.94
68952;BMP180;56000;51.146;17.112;2023-04-03T01:24:20;101083.40;;;0.98
68952;BMP180;56000;51.146;17.112;2023-04-03T01:26:55;101081.40;;;1.00
68952;BMP180;56000;51.146;17.112;2023-04-03T01:29:28;101078.80;;;1.00
68952;BMP180;56000;51.146;17.112;2023-04-03T01:32:03;101083.20;;;1.06
68952;BMP180;56000;51.146;17.112;2023-04-03T01:34:37;101084.20;;;1.10
68952;BMP180;56000;51.146;17.112;2023-04-03T01:37:10;101082.00;;;1.10
68952;BMP180;56000;51.146;17.112;2023-04-03T01:39:44;101083.60;;;1.10
68952;BMP180;56000;51.146;17.112;2023-04-03T01:42:17;101086.00;;;1.06
68952;BMP180;56000;51.146;17.112;2023-04-03T01:44:51;101087.00;;;1.00
68952;BMP180;56000;51.146;17.112;2023-04-03T01:47:25;101086.40;;;1.00
68952;BMP180;56000;51.146;17.112;2023-04-03T01:49:58;101089.00;;;1.00
68952;BMP180;56000;51.146;17.112;2023-04-03T01:52:34;101088.20;;;0.90
68952;BMP180;56000;51.146;17.112;2023-04-03T01:55:09;101090.20;;;0.90
68952;BMP180;56000;51.146;17.112;2023-04-03T01:57:43;101092.60;;;0.90
68952;BMP180;56000;51.146;17.112;2023-04-03T02:00:18;101088.60;;;0.80
68952;BMP180;56000;51.146;17.112;2023-04-03T02:02:52;101093.80;;;0.80
68952;BMP180;56000;51.146;17.112;2023-04-03T02:05:25;101089.40;;;0.80
68952;BMP180;56000;51.146;17.112;2023-04-03T02:07:59;101091.40;;;0.80
68952;BMP180;56000;51.146;17.112;2023-04-03T02:10:33;101090.00;;;0.80
68952;BMP180;56000;51.146;17.112;2023-04-03T02:13:07;101096.40;;;0.72
68952;BMP180;56000;51.146;17.112;2023-04-03T02:15:42;101096.00;;;0.70
68952;BMP180;56000;51.146;17.112;2023-04-03T02:18:16;101097.80;;;0.70
68952;BMP180;56000;51.146;17.112;2023-04-03T02:20:52;101097.60;;;0.70
68952;BMP180;56000;51.146;17.112;2023-04-03T02:23:25;101105.60;;;0.70
68952;BMP180;56000;51.146;17.112;2023-04-03T02:26:09;101102.40;;;0.70
68952;BMP180;56000;51.146;17.112;2023-04-03T02:28:43;101100.20;;;0.64
68952;BMP180;56000;51.146;17.112;2023-04-03T02:31:16;101111.80;;;0.60
68952;BMP180;56000;51.146;17.112;2023-04-03T02:33:50;101109.40;;;0.60
68952;BMP180;56000;51.146;17.112;2023-04-03T02:36:23;101105.00;;;0.52
68952;BMP180;56000;51.146;17.112;2023-04-03T02:38:59;101111.80;;;0.50
68952;BMP180;56000;51.146;17.112;2023-04-03T02:41:33;101109.40;;;0.50
68952;BMP180;56000;51.146;17.112;2023-04-03T02:44:11;101115.60;;;0.50
68952;BMP180;56000;51.146;17.112;2023-04-03T02:46:45;101113.00;;;0.44
68952;BMP180;56000;51.146;17.112;2023-04-03T02:49:18;101118.80;;;0.40
68952;BMP180;56000;51.146;17.112;2023-04-03T02:51:51;101118.60;;;0.40
68952;BMP180;56000;51.146;17.112;2023-04-03T02:54:24;101120.80;;;0.40
68952;BMP180;56000;51.146;17.112;2023-04-03T02:57:00;101128.00;;;0.40
68952;BMP180;56000;51.146;17.112;2023-04-03T02:59:34;101132.80;;;0.40
68952;BMP180;56000;51.146;17.112;2023-04-03T03:02:07;101131.80;;;0.40
68952;BMP180;56000;51.146;17.112;2023-04-03T03:04:41;101135.40;;;0.40
68952;BMP180;56000;51.146;17.112;2023-04-03T03:07:14;101135.20;;;0.40
68952;BMP180;56000;51.146;17.112;2023-04-03T03:09:47;101136.00;;;0.40
68952;BMP180;56000;51.146;17.112;2023-04-03T03:12:20;101137.00;;;0.40
68952;BMP180;56000;51.146;17.112;2023-04-03T03:14:54;101134.20;;;0.40
68952;BMP180;56000;51.146;17.112;2023-04-03T03:17:27;101137.20;;;0.40
68952;BMP180;56000;51.146;17.112;2023-04-03T03:20:01;101134.20;;;0.30
68952;BMP180;56000;51.146;17.112;2023-04-03T03:22:34;101136.60;;;0.30
68952;BMP180;56000;51.146;17.112;2023-04-03T03:25:09;101131.40;;;0.22
68952;BMP180;56000;51.146;17.112;2023-04-03T03:27:42;101135.20;;;0.20
68952;BMP180;56000;51.146;17.112;2023-04-03T03:30:16;101137.20;;;0.20
68952;BMP180;56000;51.146;17.112;2023-04-03T03:32:49;101138.60;;;0.10
68952;BMP180;56000;51.146;17.112;2023-04-03T03:35:24;101144.00;;;0.10
68952;BMP180;56000;51.146;17.112;2023-04-03T03:37:57;101151.00;;;0.10
68952;BMP180;56000;51.146;17.112;2023-04-03T03:40:31;101149.20;;;0.00
68952;BMP180;56000;51.146;17.112;2023-04-03T03:43:04;101148.60;;;0.00
68952;BMP180;56000;51.146;17.112;2023-04-03T03:45:37;101153.20;;;0.00
68952;BMP180;56000;51.146;17.112;2023-04-03T03:48:11;101151.40;;;-0.06
68952;BMP180;56000;51.146;17.112;2023-04-03T03:50:44;101155.40;;;-0.10
68952;BMP180;56000;51.146;17.112;2023-04-03T03:53:17;101157.20;;;-0.10
68952;BMP180;56000;51.146;17.112;2023-04-03T03:55:51;101154.40;;;-0.10
68952;BMP180;56000;51.146;17.112;2023-04-03T03:58:25;101155.80;;;-0.10
68952;BMP180;56000;51.146;17.112;2023-04-03T04:01:02;101152.80;;;-0.10
68952;BMP180;56000;51.146;17.112;2023-04-03T04:03:35;101154.60;;;-0.12
68952;BMP180;56000;51.146;17.112;2023-04-03T04:06:10;101156.20;;;-0.20
68952;BMP180;56000;51.146;17.112;2023-04-03T04:08:44;101167.00;;;-0.20
68952;BMP180;56000;51.146;17.112;2023-04-03T04:11:18;101161.60;;;-0.20
68952;BMP180;56000;51.146;17.112;2023-04-03T04:13:53;101163.40;;;-0.20
68952;BMP180;56000;51.146;17.112;2023-04-03T04:16:29;101165.60;;;-0.22
68952;BMP180;56000;51.146;17.112;2023-04-03T04:19:05;101164.00;;;-0.30
68952;BMP180;56000;51.146;17.112;2023-04-03T04:21:40;101170.80;;;-0.28
68952;BMP180;56000;51.146;17.112;2023-04-03T04:24:14;101174.20;;;-0.30
68952;BMP180;56000;51.146;17.112;2023-04-03T04:26:48;101174.80;;;-0.30
68952;BMP180;56000;51.146;17.112;2023-04-03T04:29:21;101182.00;;;-0.30
68952;BMP180;56000;51.146;17.112;2023-04-03T04:31:55;101180.60;;;-0.30
68952;BMP180;56000;51.146;17.112;2023-04-03T04:34:28;101186.60;;;-0.30
68952;BMP180;56000;51.146;17.112;2023-04-03T04:37:01;101186.20;;;-0.30
68952;BMP180;56000;51.146;17.112;2023-04-03T04:39:34;101191.40;;;-0.34
68952;BMP180;56000;51.146;17.112;2023-04-03T04:42:08;101199.60;;;-0.30
68952;BMP180;56000;51.146;17.112;2023-04-03T04:44:48;101200.00;;;-0.30
68952;BMP180;56000;51.146;17.112;2023-04-03T04:47:22;101205.40;;;-0.30
68952;BMP180;56000;51.146;17.112;2023-04-03T04:49:55;101206.00;;;-0.30
68952;BMP180;56000;51.146;17.112;2023-04-03T04:52:29;101208.80;;;-0.30
68952;BMP180;56000;51.146;17.112;2023-04-03T04:55:02;101212.40;;;-0.30
68952;BMP180;56000;51.146;17.112;2023-04-03T04:57:36;101214.20;;;-0.30
68952;BMP180;56000;51.146;17.112;2023-04-03T05:00:13;101215.60;;;-0.30
68952;BMP180;56000;51.146;17.112;2023-04-03T05:02:47;101219.00;;;-0.26
68952;BMP180;56000;51.146;17.112;2023-04-03T05:05:22;101216.20;;;-0.20
68952;BMP180;56000;51.146;17.112;2023-04-03T05:07:55;101215.20;;;-0.20
68952;BMP180;56000;51.146;17.112;2023-04-03T05:10:29;101215.00;;;-0.12
68952;BMP180;56000;51.146;17.112;2023-04-03T05:13:02;101221.40;;;-0.10
68952;BMP180;56000;51.146;17.112;2023-04-03T05:15:36;101224.20;;;-0.02
68952;BMP180;56000;51.146;17.112;2023-04-03T05:18:09;101227.00;;;0.00
68952;BMP180;56000;51.146;17.112;2023-04-03T05:20:43;101232.00;;;0.10
68952;BMP180;56000;51.146;17.112;2023-04-03T05:23:16;101228.20;;;0.36
68952;BMP180;56000;51.146;17.112;2023-04-03T05:25:50;101228.80;;;0.82
68952;BMP180;56000;51.146;17.112;2023-04-03T05:28:24;101223.40;;;1.30
68952;BMP180;56000;51.146;17.112;2023-04-03T05:30:58;101223.60;;;1.30
68952;BMP180;56000;51.146;17.112;2023-04-03T05:33:37;101226.60;;;1.20
68952;BMP180;56000;51.146;17.112;2023-04-03T05:36:12;101230.60;;;1.12
68952;BMP180;56000;51.146;17.112;2023-04-03T05:38:48;101231.80;;;1.10
68952;BMP180;56000;51.146;17.112;2023-04-03T05:41:21;101234.40;;;1.10
68952;BMP180;56000;51.146;17.112;2023-04-03T05:43:55;101237.40;;;1.12
68952;BMP180;56000;51.146;17.112;2023-04-03T05:46:29;101246.60;;;1.18
68952;BMP180;56000;51.146;17.112;2023-04-03T05:49:03;101245.00;;;1.20
68952;BMP180;56000;51.146;17.112;2023-04-03T05:51:39;101240.80;;;1.30
68952;BMP180;56000;51.146;17.112;2023-04-03T05:54:23;101238.60;;;1.40
68952;BMP180;56000;51.146;17.112;2023-04-03T05:57:01;101243.40;;;1.50
68952;BMP180;56000;51.146;17.112;2023-04-03T05:59:35;101242.00;;;1.56
68952;BMP180;56000;51.146;17.112;2023-04-03T06:02:08;101243.40;;;1.60
68952;BMP180;56000;51.146;17.112;2023-04-03T06:04:41;101246.60;;;1.70
68952;BMP180;56000;51.146;17.112;2023-04-03T06:07:19;101247.80;;;1.80
68952;BMP180;56000;51.146;17.112;2023-04-03T06:09:54;101246.80;;;1.90
68952;BMP180;56000;51.146;17.112;2023-04-03T06:12:28;101246.40;;;1.90
68952;BMP180;56000;51.146;17.112;2023-04-03T06:15:01;101246.80;;;1.90
68952;BMP180;56000;51.146;17.112;2023-04-03T06:17:35;101248.00;;;1.90
68952;BMP180;56000;51.146;17.112;2023-04-03T06:20:11;101249.20;;;2.00
68952;BMP180;56000;51.146;17.112;2023-04-03T06:22:45;101251.00;;;2.00
68952;BMP180;56000;51.146;17.112;2023-04-03T06:25:18;101258.00;;;2.10
68952;BMP180;56000;51.146;17.112;2023-04-03T06:27:51;101258.60;;;2.20
68952;BMP180;56000;51.146;17.112;2023-04-03T06:30:27;101255.60;;;2.20
68952;BMP180;56000;51.146;17.112;2023-04-03T06:33:00;101262.80;;;2.20
68952;BMP180;56000;51.146;17.112;2023-04-03T06:35:33;101262.20;;;2.20
68952;BMP180;56000;51.146;17.112;2023-04-03T06:38:07;101256.60;;;2.22
68952;BMP180;56000;51.146;17.112;2023-04-03T06:40:41;101255.60;;;2.20
68952;BMP180;56000;51.146;17.112;2023-04-03T06:43:15;101260.00;;;2.20
68952;BMP180;56000;51.146;17.112;2023-04-03T06:45:48;101262.20;;;2.20
68952;BMP180;56000;51.146;17.112;2023-04-03T06:48:22;101264.80;;;2.20
68952;BMP180;56000;51.146;17.112;2023-04-03T06:50:55;101269.20;;;2.22
68952;BMP180;56000;51.146;17.112;2023-04-03T06:53:29;101267.40;;;2.30
68952;BMP180;56000;51.146;17.112;2023-04-03T06:56:02;101274.80;;;2.30
68952;BMP180;56000;51.146;17.112;2023-04-03T06:58:35;101281.80;;;2.40
68952;BMP180;56000;51.146;17.112;2023-04-03T07:01:09;101287.40;;;2.46
68952;BMP180;56000;51.146;17.112;2023-04-03T07:03:43;101288.40;;;2.50
68952;BMP180;56000;51.146;17.112;2023-04-03T07:06:17;101290.40;;;2.70
68952;BMP180;56000;51.146;17.112;2023-04-03T07:08:51;101290.20;;;2.90
68952;BMP180;56000;51.146;17.112;2023-04-03T07:11:24;101292.80;;;3.00
68952;BMP180;56000;51.146;17.112;2023-04-03T07:13:58;101292.20;;;3.10
68952;BMP180;56000;51.146;17.112;2023-04-03T07:16:31;101293.00;;;3.00
68952;BMP180;56000;51.146;17.112;2023-04-03T07:19:05;101298.60;;;3.00
68952;BMP180;56000;51.146;17.112;2023-04-03T07:21:40;101294.20;;;3.26
68952;BMP180;56000;51.146;17.112;2023-04-03T07:24:14;101296.80;;;3.50
68952;BMP180;56000;51.146;17.112;2023-04-03T07:26:50;101293.20;;;3.60
68952;BMP180;56000;51.146;17.112;2023-04-03T07:29:23;101303.40;;;3.70
68952;BMP180;56000;51.146;17.112;2023-04-03T07:31:57;101298.60;;;3.60
68952;BMP180;56000;51.146;17.112;2023-04-03T07:34:30;101308.80;;;3.50
68952;BMP180;56000;51.146;17.112;2023-04-03T07:37:04;101306.60;;;3.50
68952;BMP180;56000;51.146;17.112;2023-04-03T07:39:38;101304.60;;;3.58
68952;BMP180;56000;51.146;17.112;2023-04-03T07:42:11;101308.20;;;3.70
68952;BMP180;56000;51.146;17.112;2023-04-03T07:44:45;101309.20;;;3.80
68952;BMP180;56000;51.146;17.112;2023-04-03T07:47:18;101308.00;;;3.70
68952;BMP180;56000;51.146;17.112;2023-04-03T07:49:51;101304.80;;;3.70
68952;BMP180;56000;51.146;17.112;2023-04-03T07:52:25;101299.20;;;3.70
68952;BMP180;56000;51.146;17.112;2023-04-03T07:54:58;101303.00;;;3.86
68952;BMP180;56000;51.146;17.112;2023-04-03T07:57:32;101300.80;;;4.00
68952;BMP180;56000;51.146;17.112;2023-04-03T08:00:07;101298.60;;;4.10
68952;BMP180;56000;51.146;17.112;2023-04-03T08:02:45;101306.80;;;4.20
68952;BMP180;56000;51.146;17.112;2023-04-03T08:05:22;101309.00;;;4.10
68952;BMP180;56000;51.146;17.112;2023-04-03T08:07:56;101309.80;;;4.10
68952;BMP180;56000;51.146;17.112;2023-04-03T08:10:30;101303.80;;;4.24
68952;BMP180;56000;51.146;17.112;2023-04-03T08:13:07;101307.40;;;4.40
68952;BMP180;56000;51.146;17.112;2023-04-03T08:15:41;101306.60;;;4.50
68952;BMP180;56000;51.146;17.112;2023-04-03T08:18:14;101303.80;;;4.60
68952;BMP180;56000;51.146;17.112;2023-04-03T08:20:47;101298.60;;;4.50
68952;BMP180;56000;51.146;17.112;2023-04-03T08:23:21;101303.80;;;4.60
68952;BMP180;56000;51.146;17.112;2023-04-03T08:25:54;101301.40;;;4.96
68952;BMP180;56000;51.146;17.112;2023-04-03T08:28:27;101308.80;;;5.48
68952;BMP180;56000;51.146;17.112;2023-04-03T08:31:06;101298.00;;;5.86
68952;BMP180;56000;51.146;17.112;2023-04-03T08:33:42;101292.40;;;6.56
68952;BMP180;56000;51.146;17.112;2023-04-03T08:36:24;101296.00;;;6.70
68952;BMP180;56000;51.146;17.112;2023-04-03T08:38:58;101298.40;;;6.96
68952;BMP180;56000;51.146;17.112;2023-04-03T08:41:37;101295.80;;;6.60
68952;BMP180;56000;51.146;17.112;2023-04-03T08:44:29;101290.60;;;6.36
68952;BMP180;56000;51.146;17.112;2023-04-03T08:47:17;101294.80;;;7.32
68952;BMP180;56000;51.146;17.112;2023-04-03T08:49:53;101297.00;;;7.62
68952;BMP180;56000;51.146;17.112;2023-04-03T08:52:37;101294.40;;;7.50
68952;BMP180;56000;51.146;17.112;2023-04-03T08:55:23;101287.00;;;7.60
68952;BMP180;56000;51.146;17.112;2023-04-03T08:58:03;101288.40;;;8.32
68952;BMP180;56000;51.146;17.112;2023-04-03T09:00:43;101285.80;;;8.76
68952;BMP180;56000;51.146;17.112;2023-04-03T09:03:20;101280.00;;;9.02
68952;BMP180;56000;51.146;17.112;2023-04-03T09:05:57;101280.20;;;9.60
68952;BMP180;56000;51.146;17.112;2023-04-03T09:08:35;101292.40;;;9.04
68952;BMP180;56000;51.146;17.112;2023-04-03T09:11:19;101284.00;;;9.40
68952;BMP180;56000;51.146;17.112;2023-04-03T09:13:59;101271.80;;;9.90
68952;BMP180;56000;51.146;17.112;2023-04-03T09:16:46;101280.40;;;10.10
68952;BMP180;56000;51.146;17.112;2023-04-03T09:19:27;101280.20;;;9.50
68952;BMP180;56000;51.146;17.112;2023-04-03T09:22:13;101281.80;;;8.62
68952;BMP180;56000;51.146;17.112;2023-04-03T09:24:52;101283.40;;;7.84
68952;BMP180;56000;51.146;17.112;2023-04-03T09:27:29;101279.40;;;7.66
68952;BMP180;56000;51.146;17.112;2023-04-03T09:30:03;101285.80;;;8.66
68952;BMP180;56000;51.146;17.112;2023-04-03T09:32:38;101284.80;;;9.16
68952;BMP180;56000;51.146;17.112;2023-04-03T09:35:22;101285.60;;;9.24
68952;BMP180;56000;51.146;17.112;2023-04-03T09:38:22;101290.00;;;9.10
68952;BMP180;56000;51.146;17.112;2023-04-03T09:41:13;101289.60;;;8.84
68952;BMP180;56000;51.146;17.112;2023-04-03T09:43:55;101288.40;;;8.74
68952;BMP180;56000;51.146;17.112;2023-04-03T09:46:33;101287.00;;;9.08
68952;BMP180;56000;51.146;17.112;2023-04-03T09:49:13;101296.00;;;10.68
68952;BMP180;56000;51.146;17.112;2023-04-03T09:51:46;101296.60;;;10.90
68952;BMP180;56000;51.146;17.112;2023-04-03T09:54:37;101292.80;;;10.12
68952;BMP180;56000;51.146;17.112;2023-04-03T09:57:14;101284.00;;;11.50
68952;BMP180;56000;51.146;17.112;2023-04-03T09:59:58;101293.80;;;11.28
68952;BMP180;56000;51.146;17.112;2023-04-03T10:02:40;101298.40;;;10.64
68952;BMP180;56000;51.146;17.112;2023-04-03T10:05:34;101293.40;;;10.04
68952;BMP180;56000;51.146;17.112;2023-04-03T10:08:21;101290.00;;;9.50
68952;BMP180;56000;51.146;17.112;2023-04-03T10:11:18;101298.40;;;9.04
68952;BMP180;56000;51.146;17.112;2023-04-03T10:13:57;101295.80;;;8.46
68952;BMP180;56000;51.146;17.112;2023-04-03T10:16:36;101297.20;;;8.02
68952;BMP180;56000;51.146;17.112;2023-04-03T10:19:36;101297.80;;;7.60
68952;BMP180;56000;51.146;17.112;2023-04-03T10:22:27;101299.40;;;7.20
68952;BMP180;56000;51.146;17.112;2023-04-03T10:25:15;101297.40;;;7.16
68952;BMP180;56000;51.146;17.112;2023-04-03T10:27:58;101293.20;;;6.90
68952;BMP180;56000;51.146;17.112;2023-04-03T10:30:45;101301.80;;;6.70
68952;BMP180;56000;51.146;17.112;2023-04-03T10:33:37;101290.60;;;8.30
68952;BMP180;56000;51.146;17.112;2023-04-03T10:36:23;101289.80;;;9.20
68952;BMP180;56000;51.146;17.112;2023-04-03T10:39:06;101273.40;;;10.20
68952;BMP180;56000;51.146;17.112;2023-04-03T10:41:54;101274.00;;;12.86
68952;BMP180;56000;51.146;17.112;2023-04-03T10:45:06;101276.00;;;12.98
68952;BMP180;56000;51.146;17.112;2023-04-03T10:47:47;101272.80;;;11.28
68952;BMP180;56000;51.146;17.112;2023-04-03T10:50:46;101284.60;;;10.08
68952;BMP180;56000;51.146;17.112;2023-04-03T10:53:29;101277.40;;;9.24
68952;BMP180;56000;51.146;17.112;2023-04-03T10:56:12;101282.40;;;10.40
68952;BMP180;56000;51.146;17.112;2023-04-03T10:58:49;101280.20;;;9.80
68952;BMP180;56000;51.146;17.112;2023-04-03T11:01:26;101286.00;;;9.34
68952;BMP180;56000;51.146;17.112;2023-04-03T11:04:03;101286.40;;;8.92
68952;BMP180;56000;51.146;17.112;2023-04-03T11:06:43;101288.80;;;8.70
68952;BMP180;56000;51.146;17.112;2023-04-03T11:09:25;101287.20;;;9.00
68952;BMP180;56000;51.146;17.112;2023-04-03T11:12:04;101280.80;;;9.90
68952;BMP180;56000;51.146;17.112;2023-04-03T11:14:39;101265.20;;;12.88
68952;BMP180;56000;51.146;17.112;2023-04-03T11:17:26;101267.80;;;14.46
68952;BMP180;56000;51.146;17.112;2023-04-03T11:20:10;101280.00;;;14.24
68952;BMP180;56000;51.146;17.112;2023-04-03T11:22:50;101272.00;;;13.98
68952;BMP180;56000;51.146;17.112;2023-04-03T11:25:26;101276.80;;;14.24
68952;BMP180;56000;51.146;17.112;2023-04-03T11:28:04;101272.60;;;13.18
68952;BMP180;56000;51.146;17.112;2023-04-03T11:30:48;101277.00;;;12.82
68952;BMP180;56000;51.146;17.112;2023-04-03T11:33:36;101269.20;;;11.98
68952;BMP180;56000;51.146;17.112;2023-04-03T11:36:21;101269.20;;;13.90
68952;BMP180;56000;51.146;17.112;2023-04-03T11:41:50;101266.20;;;11.68
68952;BMP180;56000;51.146;17.112;2023-04-03T11:44:39;101277.40;;;10.28
68952;BMP180;56000;51.146;17.112;2023-04-03T11:47:46;101275.20;;;10.00
68952;BMP180;56000;51.146;17.112;2023-04-03T11:50:45;101264.00;;;11.60
68952;BMP180;56000;51.146;17.112;2023-04-03T11:53:38;101265.20;;;13.44
68952;BMP180;56000;51.146;17.112;2023-04-03T11:56:31;101264.80;;;12.62
68952;BMP180;56000;51.146;17.112;2023-04-03T11:59:25;101247.40;;;13.94
68952;BMP180;56000;51.146;17.112;2023-04-03T12:01:59;101239.00;;;16.44
68952;BMP180;56000;51.146;17.112;2023-04-03T12:04:32;101240.60;;;18.54
68952;BMP180;56000;51.146;17.112;2023-04-03T12:07:19;101266.00;;;18.20
68952;BMP180;56000;51.146;17.112;2023-04-03T12:10:12;101259.80;;;15.76
68952;BMP180;56000;51.146;17.112;2023-04-03T12:13:12;101262.80;;;13.82
68952;BMP180;56000;51.146;17.112;2023-04-03T12:15:55;101256.40;;;12.44
68952;BMP180;56000;51.146;17.112;2023-04-03T12:19:25;101264.00;;;11.76
68952;BMP180;56000;51.146;17.112;2023-04-03T12:22:18;101253.20;;;10.92
68952;BMP180;56000;51.146;17.112;2023-04-03T12:24:54;101238.20;;;13.66
68952;BMP180;56000;51.146;17.112;2023-04-03T12:27:37;101235.40;;;16.24
68952;BMP180;56000;51.146;17.112;2023-04-03T12:30:27;101239.40;;;18.26
68952;BMP180;56000;51.146;17.112;2023-04-03T12:33:20;101242.20;;;18.02
68952;BMP180;56000;51.146;17.112;2023-04-03T12:36:06;101249.20;;;15.90
68952;BMP180;56000;51.146;17.112;2023-04-03T12:42:16;101255.80;;;13.20
68952;BMP180;56000;51.146;17.112;2023-04-03T12:44:58;101253.60;;;13.48
68952;BMP180;56000;51.146;17.112;2023-04-03T12:47:35;101256.40;;;12.90
68952;BMP180;56000;51.146;17.112;2023-04-03T12:50:23;101240.00;;;14.00
68952;BMP180;56000;51.146;17.112;2023-04-03T12:53:02;101239.40;;;16.32
68952;BMP180;56000;51.146;17.112;2023-04-03T12:55:36;101261.80;;;15.56
68952;BMP180;56000;51.146;17.112;2023-04-03T12:58:25;101258.80;;;13.46
68952;BMP180;56000;51.146;17.112;2023-04-03T13:01:12;101259.60;;;11.86
68952;BMP180;56000;51.146;17.112;2023-04-03T13:03:49;101264.60;;;11.20
68952;BMP180;56000;51.146;17.112;2023-04-03T13:06:26;101253.40;;;11.20
68952;BMP180;56000;51.146;17.112;2023-04-03T13:09:02;101245.00;;;13.44
68952;BMP180;56000;51.146;17.112;2023-04-03T13:11:38;101243.00;;;15.56
68952;BMP180;56000;51.146;17.112;2023-04-03T13:14:21;101239.00;;;17.30
68952;BMP180;56000;51.146;17.112;2023-04-03T13:17:00;101230.60;;;19.10
68952;BMP180;56000;51.146;17.112;2023-04-03T13:19:36;101247.00;;;19.14
68952;BMP180;56000;51.146;17.112;2023-04-03T13:22:24;101254.80;;;17.16
68952;BMP180;56000;51.146;17.112;2023-04-03T13:25:00;101237.00;;;16.72
68952;BMP180;56000;51.146;17.112;2023-04-03T13:27:34;101232.20;;;18.30
68952;BMP180;56000;51.146;17.112;2023-04-03T13:30:23;101248.20;;;18.68
68952;BMP180;56000;51.146;17.112;2023-04-03T13:32:59;101250.00;;;16.82
68952;BMP180;56000;51.146;17.112;2023-04-03T13:35:40;101249.80;;;14.82
68952;BMP180;56000;51.146;17.112;2023-04-03T13:38:28;101238.40;;;15.42
68952;BMP180;56000;51.146;17.112;2023-04-03T13:43:52;101246.80;;;14.38
68952;BMP180;56000;51.146;17.112;2023-04-03T13:46:41;101259.60;;;12.44
68952;BMP180;56000;51.146;17.112;2023-04-03T13:49:31;101260.80;;;11.26
68952;BMP180;56000;51.146;17.112;2023-04-03T13:52:23;101251.20;;;11.64
68952;BMP180;56000;51.146;17.112;2023-04-03T13:55:11;101247.00;;;14.40
68952;BMP180;56000;51.146;17.112;2023-04-03T13:58:00;101248.40;;;15.26
68952;BMP180;56000;51.146;17.112;2023-04-03T14:00:39;101244.20;;;15.10
68952;BMP180;56000;51.146;17.112;2023-04-03T14:03:24;101246.00;;;14.34
68952;BMP180;56000;51.146;17.112;2023-04-03T14:05:57;101243.00;;;13.48
68952;BMP180;56000;51.146;17.112;2023-04-03T14:08:31;101255.60;;;12.62
68952;BMP180;56000;51.146;17.112;2023-04-03T14:11:18;101254.20;;;11.12
68952;BMP180;56000;51.146;17.112;2023-04-03T14:13:52;101244.20;;;10.18
68952;BMP180;56000;51.146;17.112;2023-04-03T14:16:29;101254.80;;;9.82
68952;BMP180;56000;51.146;17.112;2023-04-03T14:19:03;101250.00;;;10.16
68952;BMP180;56000;51.146;17.112;2023-04-03T14:21:36;101244.80;;;11.90
68952;BMP180;56000;51.146;17.112;2023-04-03T14:24:10;101245.60;;;12.64
68952;BMP180;56000;51.146;17.112;2023-04-03T14:26:45;101233.20;;;14.40
68952;BMP180;56000;51.146;17.112;2023-04-03T14:29:19;101229.40;;;16.26
68952;BMP180;56000;51.146;17.112;2023-04-03T14:31:53;101237.20;;;17.66
68952;BMP180;56000;51.146;17.112;2023-04-03T14:34:45;101249.60;;;18.42
68952;BMP180;56000;51.146;17.112;2023-04-03T14:37:22;101246.20;;;16.52
68952;BMP180;56000;51.146;17.112;2023-04-03T14:39:57;101253.60;;;14.18
68952;BMP180;56000;51.146;17.112;2023-04-03T14:42:32;101251.20;;;12.28
68952;BMP180;56000;51.146;17.112;2023-04-03T14:45:09;101244.40;;;12.06
68952;BMP180;56000;51.146;17.112;2023-04-03T14:47:47;101238.60;;;14.22
68952;BMP180;56000;51.146;17.112;2023-04-03T14:50:24;101238.60;;;15.66
68952;BMP180;56000;51.146;17.112;2023-04-03T14:53:00;101240.40;;;15.78
68952;BMP180;56000;51.146;17.112;2023-04-03T14:55:34;101240.00;;;14.34
68952;BMP180;56000;51.146;17.112;2023-04-03T14:58:09;101244.20;;;12.64
68952;BMP180;56000;51.146;17.112;2023-04-03T15:00:45;101251.00;;;11.26
68952;BMP180;56000;51.146;17.112;2023-04-03T15:03:20;101249.40;;;10.24
68952;BMP180;56000;51.146;17.112;2023-04-03T15:05:55;101256.20;;;9.50
68952;BMP180;56000;51.146;17.112;2023-04-03T15:08:29;101250.60;;;9.00
68952;BMP180;56000;51.146;17.112;2023-04-03T15:11:03;101246.20;;;9.00